Map

Track Data

SID SEASON NUMBER BASIN SUBBASIN NAME ISO_TIME NATURE LAT LON WMO_WIND WMO_PRES WMO_AGENCY TRACK_TYPE DIST2LAND LANDFALL IFLAG USA_AGENCY USA_ATCF_ID USA_LAT USA_LON USA_RECORD USA_STATUS USA_WIND USA_PRES USA_SSHS USA_R34_NE USA_R34_SE USA_R34_SW USA_R34_NW USA_R50_NE USA_R50_SE USA_R50_SW USA_R50_NW USA_R64_NE USA_R64_SE USA_R64_SW USA_R64_NW USA_POCI USA_ROCI USA_RMW USA_EYE TOKYO_LAT TOKYO_LON TOKYO_GRADE TOKYO_WIND TOKYO_PRES TOKYO_R50_DIR TOKYO_R50_LONG TOKYO_R50_SHORT TOKYO_R30_DIR TOKYO_R30_LONG TOKYO_R30_SHORT TOKYO_LAND CMA_LAT CMA_LON CMA_CAT CMA_WIND CMA_PRES HKO_LAT HKO_LON HKO_CAT HKO_WIND HKO_PRES NEWDELHI_LAT NEWDELHI_LON NEWDELHI_GRADE NEWDELHI_WIND NEWDELHI_PRES NEWDELHI_CI NEWDELHI_DP NEWDELHI_POCI REUNION_LAT REUNION_LON REUNION_TYPE REUNION_WIND REUNION_PRES REUNION_TNUM REUNION_CI REUNION_RMW REUNION_R34_NE REUNION_R34_SE REUNION_R34_SW REUNION_R34_NW REUNION_R50_NE REUNION_R50_SE REUNION_R50_SW REUNION_R50_NW REUNION_R64_NE REUNION_R64_SE REUNION_R64_SW REUNION_R64_NW BOM_LAT BOM_LON BOM_TYPE BOM_WIND BOM_PRES BOM_TNUM BOM_CI BOM_RMW BOM_R34_NE BOM_R34_SE BOM_R34_SW BOM_R34_NW BOM_R50_NE BOM_R50_SE BOM_R50_SW BOM_R50_NW BOM_R64_NE BOM_R64_SE BOM_R64_SW BOM_R64_NW BOM_ROCI BOM_POCI BOM_EYE BOM_POS_METHOD BOM_PRES_METHOD NADI_LAT NADI_LON NADI_CAT NADI_WIND NADI_PRES WELLINGTON_LAT WELLINGTON_LON WELLINGTON_WIND WELLINGTON_PRES DS824_LAT DS824_LON DS824_STAGE DS824_WIND DS824_PRES TD9636_LAT TD9636_LON TD9636_STAGE TD9636_WIND TD9636_PRES TD9635_LAT TD9635_LON TD9635_WIND TD9635_PRES TD9635_ROCI NEUMANN_LAT NEUMANN_LON NEUMANN_CLASS NEUMANN_WIND NEUMANN_PRES MLC_LAT MLC_LON MLC_CLASS MLC_WIND MLC_PRES USA_GUST BOM_GUST BOM_GUST_PER REUNION_GUST REUNION_GUST_PER USA_SEAHGT USA_SEARAD_NE USA_SEARAD_SE USA_SEARAD_SW USA_SEARAD_NW STORM_SPEED STORM_DIR
1976038S22135 1976 15 SI WA ALAN 1976-02-07 05:00:00 TS -21.9985 134.744 spur-other 0 0 ______________ -1 15 246
1976038S22135 1976 15 SI WA ALAN 1976-02-07 06:00:00 TS -22.1000 134.500 spur-other 0 0 ____________O_ -1 -22.1000 134.500 TC 30 992 36 257
1976038S22135 1976 15 SI WA ALAN 1976-02-07 09:00:00 TS -22.5284 132.248 spur-other 0 0 ____________P_ -1 -22.5553 131.783 TC 30 993 44 258
1976038S22135 1976 15 SI WA ALAN 1976-02-07 11:00:00 TS -22.8444 130.605 spur-other 0 0 ____________P_ -1 -22.8489 130.431 TC 30 993 43 257
1976038S22135 1976 15 SI WA ALAN 1976-02-07 12:00:00 TS -23.0000 130.000 spur-other 0 0 ____________O_ -1 -23.0000 130.000 TC 30 994 15 231
1976038S22135 1976 15 SI WA ALAN 1976-02-07 15:00:00 TS -23.4750 129.752 spur-other 0 0 ____________P_ -1 -23.4750 129.752 TC 30 993 9 177
1976038S22135 1976 15 SI WA ALAN 1976-02-07 17:00:00 TS -23.7712 130.048 spur-other 0 0 ____________P_ -1 -23.7712 130.048 TC 30 993 12 136
1976038S22135 1976 15 SI WA ALAN 1976-02-07 18:00:00 TS -23.9000 130.200 spur-other 0 0 ____________O_ -1 -23.9000 130.200 TC 30 993 7 152
1976038S22135 1976 15 SI WA ALAN 1976-02-07 21:00:00 TS -24.1875 130.287 spur-other 0 0 ____________P_ -1 -24.1875 130.287 TC 30 993 5 167
1976038S22135 1976 15 SI WA ALAN 1976-02-07 23:00:00 TS -24.3328 130.309 spur-other 0 0 ____________P_ -1 -24.3328 130.309 TC 30 993 4 176
1976038S22135 1976 15 SI WA ALAN 1976-02-08 00:00:00 TS -24.4000 130.300 spur-other 0 0 ____________O_ -1 -24.4000 130.300 TC 30 993 5 206
1976038S22135 1976 15 SI WA ALAN 1976-02-08 03:00:00 TS -24.6226 130.158 spur-other 0 0 ____________P_ -1 -24.6226 130.158 TC 30 992 5 214
1976038S22135 1976 15 SI WA ALAN 1976-02-08 05:00:00 TS -24.7474 130.043 spur-other 0 0 ____________P_ -1 -24.7474 130.043 TC 30 992 5 219
1976038S22135 1976 15 SI WA ALAN 1976-02-08 06:00:00 TS -24.8000 130.000 spur-other 0 0 ____________O_ -1 -24.8000 130.000 TC 30 992 3 211
1976038S22135 1976 15 SI WA ALAN 1976-02-08 08:00:00 TS -24.8824 129.955 spur-other 0 0 ____________P_ -1 -24.8824 129.955 TC 30 992 2 194
1976038S22135 1976 15 SI WA ALAN 1976-02-08 09:00:00 TS -24.9149 129.947 spur-other 0 0 ____________P_ -1 -24.9149 129.947 TC 30 993 2 0
1976038S22135 1976 15 SI WA ALAN 1976-02-08 11:00:00 TS -24.9719 129.969 spur-other 0 0 ____________P_ -1 -24.9719 129.969 TC 30 993 2 151
1976038S22135 1976 15 SI WA ALAN 1976-02-08 12:00:00 TS -25.0000 130.000 spur-other 0 0 ____________O_ -1 -25.0000 130.000 TC 30 994 3 127
1976038S22135 1976 15 SI WA ALAN 1976-02-08 15:00:00 TS -25.1075 130.162 spur-other 0 0 ____________P_ -1 -25.1075 130.162 TC 30 993 4 121
1976038S22135 1976 15 SI WA ALAN 1976-02-08 17:00:00 TS -25.1724 130.317 spur-other 0 0 ____________P_ -1 -25.1724 130.317 TC 30 993 5 113
1976038S22135 1976 15 SI WA ALAN 1976-02-08 18:00:00 TS -25.2000 130.400 spur-other 0 0 ____________O_ -1 -25.2000 130.400 TC 30 993 2 240
1976038S22135 1976 15 SI WA ALAN 1976-02-08 21:00:00 TS -25.2308 130.203 spur-other 0 0 ____________P_ -1 -25.2308 130.203 TC 30 993 1 133
1976038S22135 1976 15 SI WA ALAN 1976-02-08 23:00:00 TS -25.2662 130.479 spur-other 0 0 ____________P_ -1 -25.2662 130.479 TC 30 993 13 96
1976038S22135 1976 15 SI WA ALAN 1976-02-09 00:00:00 TS -25.3000 130.900 spur-other 0 0 ____________O_ -1 -25.3000 130.900 TC 30 993 48 94
1976038S22135 1976 15 SI WA ALAN 1976-02-09 03:00:00 TS -25.4650 134.000 spur-other 0 0 ____________P_ -1 -25.4598 133.508 TC 30 992 59 93
1976038S22135 1976 15 SP EA ALAN 1976-02-09 05:00:00 TS -25.5593 136.341 spur-other 0 0 ____________P_ -1 -25.5626 135.978 TC 30 992 60 93
1976038S22135 1976 15 SP EA ALAN 1976-02-09 06:00:00 TS -25.6000 137.300 spur-other 0 ____________O_ -1 -25.6000 137.300 TC 30 992 52 93

About IBTrACS Database

This database is a web-friendly format of International Best Track Archive for Climate Stewardship (IBTrACS), a global best track data archive curated by NOAA dating back to 1842.

Updated: 2021-10-08